KAMG/AMG METAR and TAF weather

Enter ICAO airport designator
Station Type Date Time Source
KAMG METAR 2022/01/25 03:53 UTC NOAA

KAMG 250353Z AUTO 00000KT 10SM CLR 06/04 A2999 RMK AO2 SLP154 T00560039


Station Type Date Time Source
KAMG Decoded METAR 2022/01/25 03:53 UTC NOAA

ALMA BACON COUNTY AIRPORT, GA, United States (KAMG) 31-32N 82-30W 59M
Jan 24, 2022 - 10:53 PM EST / 2022.01.25 0353 UTC
Wind: Calm:0
Visibility: 10 mile(s):0
Sky conditions: clear
Temperature: 42.1 F (5.6 C)
Dew Point: 39.0 F (3.9 C)
Relative Humidity: 88%
Pressure (altimeter): 29.99 in. Hg (1015 hPa)
ob: KAMG 250353Z AUTO 00000KT 10SM CLR 06/04 A2999 RMK AO2 SLP154 T00560039
cycle: 4

Station Type Date Time Source
KAMG TAF UTC NOAA

Error!

Example: see airport list